Time;durP1;ratioP1;P1;durP2;ratioP2;P2;SDS_P1;SDS_P2;PMS_P1;PMS_P2;Temp;Humidity;BMP_temperature;BMP_pressure;BME280_temperature;BME280_humidity;BME280_pressure;Samples;Min_cycle;Max_cycle;Signal;HPM_P1;HPM_P2
2023/08/22 03:02:41;;;;;;;3.20;2.90;;;26.60;62.20;;;;;;4817652;23;45695;-86
2023/08/22 03:05:09;;;;;;;3.10;2.80;;;26.60;62.30;;;;;;4827667;29;45313;-86
2023/08/22 03:07:35;;;;;;;4.43;2.72;;;26.60;62.20;;;;;;4847870;29;45623;-85
2023/08/22 03:10:01;;;;;;;3.65;3.30;;;26.60;62.20;;;;;;4863171;29;45833;-81
2023/08/22 03:12:27;;;;;;;3.63;3.33;;;26.60;62.20;;;;;;4814877;29;44971;-82
2023/08/22 03:14:52;;;;;;;2.83;2.63;;;26.60;62.20;;;;;;4793899;29;45322;-83
2023/08/22 03:17:18;;;;;;;3.63;3.00;;;26.60;62.20;;;;;;4814997;29;45179;-84
2023/08/22 03:19:43;;;;;;;2.95;2.75;;;26.60;62.20;;;;;;4822101;29;46370;-82
2023/08/22 03:22:09;;;;;;;3.50;2.78;;;26.60;62.20;;;;;;4807621;29;45499;-81
2023/08/22 03:24:35;;;;;;;3.65;3.22;;;26.60;62.10;;;;;;4833764;29;44884;-83
2023/08/22 03:27:00;;;;;;;3.50;3.20;;;26.60;62.10;;;;;;4802153;29;45336;-80
2023/08/22 03:29:26;;;;;;;2.78;2.58;;;26.60;62.10;;;;;;4818237;29;45363;-82
2023/08/22 03:31:51;;;;;;;3.45;3.05;;;26.60;62.20;;;;;;4796876;29;45590;-81
2023/08/22 03:34:17;;;;;;;3.95;2.92;;;26.60;62.10;;;;;;4809145;29;45277;-84
2023/08/22 03:36:42;;;;;;;3.47;3.17;;;26.60;62.20;;;;;;4824187;29;45123;-82
2023/08/22 03:39:08;;;;;;;3.00;2.80;;;26.60;62.20;;;;;;4819188;29;46550;-80
2023/08/22 03:41:34;;;;;;;3.08;2.78;;;26.60;62.10;;;;;;4809645;29;45505;-81
2023/08/22 03:43:59;;;;;;;3.33;2.70;;;26.60;62.10;;;;;;4830656;29;45044;-82
2023/08/22 03:46:25;;;;;;;3.20;2.90;;;26.60;62.10;;;;;;4816635;29;45592;-82
2023/08/22 03:48:50;;;;;;;5.20;2.92;;;26.60;62.10;;;;;;4826631;29;45587;-82
2023/08/22 03:51:16;;;;;;;4.18;3.00;;;26.60;62.10;;;;;;4839897;29;45462;-83
2023/08/22 03:53:44;;;;;;;4.13;2.90;;;26.60;62.10;;;;;;4848447;29;45833;-82
2023/08/22 03:56:10;;;;;;;3.97;3.00;;;26.60;62.10;;;;;;4831156;29;45521;-83
2023/08/22 03:58:35;;;;;;;4.35;3.40;;;26.60;62.10;;;;;;4826043;29;45177;-82
2023/08/22 04:01:03;;;;;;;3.63;3.28;;;26.60;62.10;;;;;;4782791;29;45003;-82
2023/08/22 04:03:29;;;;;;;4.05;3.10;;;26.60;62.10;;;;;;4824268;29;45094;-86
2023/08/22 04:05:54;;;;;;;3.63;3.28;;;26.60;62.10;;;;;;4795942;29;45258;-82
2023/08/22 04:08:20;;;;;;;3.50;3.20;;;26.60;62.10;;;;;;4797656;29;45950;-83
2023/08/22 04:10:45;;;;;;;3.00;2.70;;;26.60;62.10;;;;;;4771578;29;45290;-86
2023/08/22 04:13:11;;;;;;;3.95;3.38;;;26.60;62.10;;;;;;4773592;29;45530;-82
2023/08/22 04:15:39;;;;;;;4.15;2.97;;;26.60;62.10;;;;;;4799353;29;45591;-83
2023/08/22 04:18:08;;;;;;;3.05;2.85;;;26.60;62.10;;;;;;4785942;29;46166;-84
2023/08/22 04:20:33;;;;;;;3.22;2.90;;;26.50;62.10;;;;;;4827530;29;45428;-83
2023/08/22 04:22:59;;;;;;;3.15;2.85;;;26.50;62.10;;;;;;4793450;29;45336;-85
2023/08/22 04:25:25;;;;;;;3.53;2.78;;;26.50;62.10;;;;;;4807643;29;45321;-81
2023/08/22 04:27:50;;;;;;;2.97;2.72;;;26.50;62.00;;;;;;4810128;29;47454;-82
2023/08/22 04:30:16;;;;;;;3.55;2.97;;;26.50;62.00;;;;;;4819115;29;45537;-84
2023/08/22 04:32:41;;;;;;;3.03;2.80;;;26.50;62.00;;;;;;4797628;29;44981;-83
2023/08/22 04:35:07;;;;;;;3.92;3.20;;;26.50;62.00;;;;;;4798278;29;45712;-86
2023/08/22 04:37:33;;;;;;;3.00;2.80;;;26.50;62.00;;;;;;4818368;29;45197;-81
2023/08/22 04:39:59;;;;;;;3.05;2.75;;;26.50;62.00;;;;;;4821518;29;45578;-83
2023/08/22 04:42:24;;;;;;;3.40;3.10;;;26.50;62.00;;;;;;4813887;29;45633;-82
2023/08/22 04:44:50;;;;;;;3.30;3.00;;;26.50;62.00;;;;;;4792506;29;45548;-81
2023/08/22 04:47:15;;;;;;;3.88;2.97;;;26.50;62.00;;;;;;4810094;29;45385;-84
2023/08/22 04:49:41;;;;;;;3.10;2.90;;;26.50;62.00;;;;;;4787576;29;45359;-81
2023/08/22 04:52:07;;;;;;;3.20;2.88;;;26.50;62.00;;;;;;4818695;29;45363;-83
2023/08/22 04:54:33;;;;;;;5.15;2.78;;;26.50;62.00;;;;;;4839084;29;45125;-83
2023/08/22 04:56:58;;;;;;;3.97;3.28;;;26.50;62.00;;;;;;4811670;29;45480;-85
2023/08/22 04:59:24;;;;;;;3.50;3.20;;;26.50;62.00;;;;;;4811228;29;44655;-82
2023/08/22 05:01:50;;;;;;;3.58;2.90;;;26.50;62.00;;;;;;4784746;29;45569;-83
2023/08/22 05:04:16;;;;;;;2.97;2.67;;;26.50;62.00;;;;;;4812488;29;45674;-83
2023/08/22 05:06:42;;;;;;;3.30;2.95;;;26.50;62.00;;;;;;4799607;29;45858;-84
2023/08/22 05:09:09;;;;;;;3.28;2.97;;;26.50;62.00;;;;;;4821881;29;45630;-84
2023/08/22 05:11:35;;;;;;;3.47;2.95;;;26.50;62.00;;;;;;4812335;29;45884;-83
2023/08/22 05:14:00;;;;;;;3.92;3.47;;;26.50;62.00;;;;;;4800653;29;45280;-84
2023/08/22 05:16:26;;;;;;;3.05;2.75;;;26.50;62.00;;;;;;4788093;29;46706;-84
2023/08/22 05:18:51;;;;;;;3.38;3.08;;;26.50;62.00;;;;;;4801653;29;45882;-85
2023/08/22 05:21:17;;;;;;;3.65;2.83;;;26.50;62.00;;;;;;4820445;29;45283;-86
2023/08/22 05:23:43;;;;;;;3.33;3.03;;;26.50;62.00;;;;;;4807374;29;46286;-84
2023/08/22 05:26:08;;;;;;;3.50;3.20;;;26.50;62.00;;;;;;4783483;29;47524;-83
2023/08/22 05:28:34;;;;;;;4.38;3.22;;;26.50;62.00;;;;;;4812823;29;45408;-83
2023/08/22 05:31:00;;;;;;;3.88;3.40;;;26.50;62.00;;;;;;4788261;29;45337;-88
2023/08/22 05:33:26;;;;;;;5.13;3.03;;;26.50;62.00;;;;;;4774872;29;44880;-83
2023/08/22 05:35:51;;;;;;;3.40;3.10;;;26.50;62.00;;;;;;4826434;29;45465;-81
2023/08/22 05:38:17;;;;;;;3.35;3.00;;;26.50;62.00;;;;;;4817763;29;45150;-81
2023/08/22 05:40:42;;;;;;;4.07;2.92;;;26.50;62.00;;;;;;4800569;29;45130;-81
2023/08/22 05:43:08;;;;;;;3.00;2.80;;;26.50;62.00;;;;;;4806873;29;45037;-81
2023/08/22 05:45:33;;;;;;;3.17;2.88;;;26.50;62.00;;;;;;4817430;29;47982;-82
2023/08/22 05:47:59;;;;;;;3.15;2.85;;;26.50;62.00;;;;;;4789515;29;45973;-83
2023/08/22 05:50:24;;;;;;;3.30;3.00;;;26.50;62.00;;;;;;4809429;29;45512;-82
2023/08/22 05:52:51;;;;;;;3.88;3.30;;;26.50;62.00;;;;;;4776853;29;45178;-83
2023/08/22 05:55:16;;;;;;;3.42;3.15;;;26.50;62.00;;;;;;4813381;29;45572;-82
2023/08/22 05:57:42;;;;;;;4.07;2.88;;;26.50;62.00;;;;;;4824105;29;45352;-82
2023/08/22 06:00:08;;;;;;;3.70;3.25;;;26.50;62.00;;;;;;4767112;29;44877;-84
2023/08/22 06:02:35;;;;;;;3.30;3.00;;;26.50;62.80;;;;;;4773017;29;44764;-84
2023/08/22 06:05:00;;;;;;;3.60;3.30;;;26.50;62.00;;;;;;4768986;29;47469;-82
2023/08/22 06:07:26;;;;;;;3.20;2.90;;;26.50;62.00;;;;;;4818507;29;45467;-85
2023/08/22 06:09:51;;;;;;;3.50;3.20;;;26.50;62.00;;;;;;4825164;29;45536;-83
2023/08/22 06:12:17;;;;;;;3.30;3.00;;;26.50;62.00;;;;;;4817885;29;45054;-81
2023/08/22 06:14:43;;;;;;;3.10;2.80;;;26.50;62.00;;;;;;4817116;29;46862;-80
2023/08/22 06:17:09;;;;;;;3.40;3.10;;;26.50;62.00;;;;;;4813995;29;45294;-80
2023/08/22 06:19:34;;;;;;;3.20;2.90;;;26.50;62.00;;;;;;4804389;29;45039;-83
2023/08/22 06:22:00;;;;;;;4.18;3.10;;;26.50;62.00;;;;;;4835868;29;45546;-85
2023/08/22 06:24:25;;;;;;;3.30;3.00;;;26.50;62.00;;;;;;4822551;29;45341;-85
2023/08/22 06:26:51;;;;;;;4.05;2.92;;;26.50;62.00;;;;;;4807656;29;45745;-85
2023/08/22 06:29:17;;;;;;;2.90;2.65;;;26.50;62.10;;;;;;4830962;29;45150;-86
2023/08/22 06:31:42;;;;;;;4.13;3.17;;;26.50;62.00;;;;;;4800685;29;45538;-85
2023/08/22 06:34:08;;;;;;;3.40;3.10;;;26.50;62.00;;;;;;4809305;29;45077;-86
2023/08/22 06:36:33;;;;;;;3.00;2.70;;;26.50;62.00;;;;;;4771484;29;46507;-84
2023/08/22 06:39:00;;;;;;;3.38;3.08;;;26.50;62.10;;;;;;4795954;29;45289;-85
2023/08/22 06:41:26;;;;;;;3.42;3.13;;;26.50;62.00;;;;;;4811667;29;45559;-84
2023/08/22 06:43:52;;;;;;;3.50;3.20;;;26.50;62.10;;;;;;4824469;29;46310;-85
2023/08/22 06:46:21;;;;;;;3.40;3.10;;;26.50;62.00;;;;;;4795260;29;45210;-85
2023/08/22 06:48:50;;;;;;;3.00;2.70;;;26.50;62.00;;;;;;4800704;29;45614;-86
2023/08/22 06:51:15;;;;;;;3.80;3.40;;;26.50;62.10;;;;;;4793250;29;45537;-85
2023/08/22 06:53:41;;;;;;;3.38;3.08;;;26.50;62.10;;;;;;4798609;29;45785;-83
2023/08/22 06:56:07;;;;;;;3.28;2.97;;;26.50;62.10;;;;;;4795740;29;45556;-84
2023/08/22 06:58:33;;;;;;;2.90;2.60;;;26.40;62.00;;;;;;4805193;29;45495;-84
2023/08/22 07:01:04;;;;;;;3.15;2.90;;;26.50;62.00;;;;;;4808811;29;45624;-89
2023/08/22 07:03:30;;;;;;;2.90;2.58;;;26.50;62.00;;;;;;4789880;29;46455;-85
2023/08/22 07:05:56;;;;;;;3.30;3.00;;;26.50;62.10;;;;;;4800349;29;45288;-81
2023/08/22 07:08:21;;;;;;;2.88;2.67;;;26.50;62.10;;;;;;4788347;29;46091;-83
2023/08/22 07:10:47;;;;;;;3.20;2.90;;;26.50;62.10;;;;;;4800617;29;45656;-88
2023/08/22 07:13:14;;;;;;;2.85;2.65;;;26.40;62.00;;;;;;4817928;29;45938;-85
2023/08/22 07:15:43;;;;;;;3.38;2.70;;;26.50;62.00;;;;;;4772844;29;45782;-84
2023/08/22 07:18:08;;;;;;;3.25;2.95;;;26.40;62.00;;;;;;4797656;29;45567;-85
2023/08/22 07:20:34;;;;;;;3.30;3.00;;;26.50;62.00;;;;;;4824768;29;45563;-84
2023/08/22 07:22:59;;;;;;;3.50;3.20;;;26.50;62.00;;;;;;4808537;29;46758;-82
2023/08/22 07:25:25;;;;;;;3.13;2.85;;;26.40;62.00;;;;;;4814135;29;45527;-82
2023/08/22 07:27:50;;;;;;;3.30;3.00;;;26.50;62.10;;;;;;4789981;29;44965;-81
2023/08/22 07:30:16;;;;;;;3.40;3.10;;;26.40;62.00;;;;;;4816200;29;45672;-82
2023/08/22 07:32:41;;;;;;;3.38;3.08;;;26.40;62.00;;;;;;4799488;29;47267;-85
2023/08/22 07:35:08;;;;;;;3.30;3.00;;;26.40;62.00;;;;;;4812265;29;45665;-88
2023/08/22 07:37:33;;;;;;;3.35;3.05;;;26.40;62.00;;;;;;4778590;29;45472;-82
2023/08/22 07:39:59;;;;;;;3.40;3.10;;;26.40;62.00;;;;;;4814854;29;45318;-83
2023/08/22 07:42:24;;;;;;;3.20;2.90;;;26.50;62.10;;;;;;4804639;29;48795;-84
2023/08/22 07:44:50;;;;;;;3.00;2.75;;;26.40;62.00;;;;;;4804889;29;45503;-84
2023/08/22 07:47:15;;;;;;;3.47;3.17;;;26.50;62.00;;;;;;4822746;29;45601;-84
2023/08/22 07:49:41;;;;;;;3.58;3.28;;;26.50;62.00;;;;;;4804458;29;45177;-82
2023/08/22 07:52:08;;;;;;;3.33;2.95;;;26.50;62.00;;;;;;4799719;29;45963;-82
2023/08/22 07:54:33;;;;;;;3.40;3.10;;;26.40;62.00;;;;;;4786784;29;44970;-83
2023/08/22 07:57:00;;;;;;;3.58;3.28;;;26.50;62.10;;;;;;4812496;29;45225;-81
2023/08/22 07:59:25;;;;;;;2.70;2.50;;;26.50;62.00;;;;;;4790372;29;45181;-82
2023/08/22 08:01:51;;;;;;;3.83;2.70;;;26.50;62.00;;;;;;4833464;29;46392;-85
2023/08/22 08:04:16;;;;;;;3.85;3.25;;;26.40;62.00;;;;;;4816960;29;44920;-82
2023/08/22 08:06:42;;;;;;;3.42;2.90;;;26.50;62.00;;;;;;4829747;29;45209;-82
2023/08/22 08:09:08;;;;;;;3.60;2.95;;;26.50;62.00;;;;;;4816847;29;45661;-84
2023/08/22 08:11:34;;;;;;;3.33;2.97;;;26.50;62.00;;;;;;4821230;29;45618;-83
2023/08/22 08:13:59;;;;;;;3.03;2.72;;;26.50;62.00;;;;;;4834182;29;45073;-83
2023/08/22 08:16:25;;;;;;;2.95;2.75;;;26.50;62.00;;;;;;4797357;29;45786;-84
2023/08/22 08:18:52;;;;;;;2.67;2.47;;;26.50;62.00;;;;;;4830947;29;45809;-81
2023/08/22 08:21:18;;;;;;;3.50;3.20;;;26.50;62.80;;;;;;4845443;29;45903;-87
2023/08/22 08:23:44;;;;;;;3.30;2.90;;;26.50;62.00;;;;;;4830577;29;45337;-84
2023/08/22 08:26:11;;;;;;;3.40;3.10;;;26.50;62.00;;;;;;4823524;29;45588;-86
2023/08/22 08:28:36;;;;;;;4.10;2.97;;;26.50;62.00;;;;;;4833798;29;45512;-86
2023/08/22 08:31:02;;;;;;;3.65;3.35;;;26.50;62.00;;;;;;4831322;29;45810;-85
2023/08/22 08:33:28;;;;;;;3.58;3.28;;;26.50;62.70;;;;;;4831500;29;45618;-82
2023/08/22 08:35:53;;;;;;;3.67;3.28;;;26.50;62.00;;;;;;4810038;29;45583;-82
2023/08/22 08:38:19;;;;;;;2.90;2.70;;;26.50;62.00;;;;;;4847512;29;45199;-81
2023/08/22 08:40:45;;;;;;;3.65;3.13;;;26.50;62.00;;;;;;4819338;29;47110;-84
2023/08/22 08:43:11;;;;;;;4.13;3.10;;;26.50;62.00;;;;;;4813280;29;45624;-83
2023/08/22 08:45:36;;;;;;;3.10;2.80;;;26.50;62.00;;;;;;4830033;29;45212;-85
2023/08/22 08:48:03;;;;;;;3.28;2.97;;;26.50;62.00;;;;;;4805049;29;45666;-82
2023/08/22 08:50:28;;;;;;;3.13;2.83;;;26.50;62.00;;;;;;4823934;29;45742;-85
2023/08/22 08:52:54;;;;;;;4.05;3.05;;;26.50;62.00;;;;;;4828843;29;45728;-84
2023/08/22 08:55:19;;;;;;;3.63;2.80;;;26.50;62.00;;;;;;4843253;29;45447;-88
2023/08/22 08:57:46;;;;;;;4.55;3.10;;;26.50;62.00;;;;;;4841339;29;45190;-84
2023/08/22 09:00:16;;;;;;;3.17;2.83;;;26.50;62.00;;;;;;4832868;29;45727;-84
2023/08/22 09:02:43;;;;;;;4.10;3.50;;;26.50;62.00;;;;;;4804540;29;45398;-83
2023/08/22 09:05:11;;;;;;;4.20;3.20;;;26.50;62.00;;;;;;4813121;29;45655;-88
2023/08/22 09:07:37;;;;;;;3.13;2.92;;;26.50;61.90;;;;;;4833503;29;45715;-83
2023/08/22 09:10:07;;;;;;;2.92;2.72;;;26.50;62.00;;;;;;4815063;29;47255;-88
2023/08/22 09:12:33;;;;;;;3.40;2.85;;;26.50;61.90;;;;;;4797414;29;45481;-84
2023/08/22 09:14:59;;;;;;;3.40;3.10;;;26.50;62.00;;;;;;4833347;29;45446;-81
2023/08/22 09:17:27;;;;;;;3.08;2.78;;;26.50;61.90;;;;;;4824676;29;45279;-85
2023/08/22 09:19:55;;;;;;;3.42;3.13;;;26.50;62.00;;;;;;4785215;29;47641;-82
2023/08/22 09:22:27;;;;;;;3.53;3.22;;;26.50;62.00;;;;;;4809753;29;45422;-82
2023/08/22 09:24:53;;;;;;;3.67;3.10;;;26.50;62.00;;;;;;4835526;29;45288;-83
2023/08/22 09:27:25;;;;;;;3.50;3.20;;;26.50;62.00;;;;;;4826529;29;44986;-86
2023/08/22 09:29:51;;;;;;;3.30;3.00;;;26.50;61.90;;;;;;4817903;29;45484;-82
2023/08/22 09:32:16;;;;;;;3.08;2.80;;;26.50;62.00;;;;;;4829306;29;45546;-84
2023/08/22 09:34:55;;;;;;;2.80;2.60;;;26.50;62.00;;;;;;4818780;29;45524;-83
2023/08/22 09:37:33;;;;;;;3.45;3.15;;;26.50;61.90;;;;;;4804039;29;45472;-83
2023/08/22 09:40:20;;;;;;;3.25;2.95;;;26.50;61.90;;;;;;4843263;29;46383;-84
2023/08/22 09:42:47;;;;;;;3.70;3.25;;;26.50;62.00;;;;;;4811082;29;45219;-85
2023/08/22 09:45:15;;;;;;;3.17;2.97;;;26.50;62.00;;;;;;4818665;29;45579;-85
2023/08/22 09:47:42;;;;;;;3.40;3.10;;;26.50;61.90;;;;;;4796034;29;45223;-83
2023/08/22 09:50:09;;;;;;;3.10;2.83;;;26.50;61.90;;;;;;4814935;29;46290;-86
2023/08/22 09:52:38;;;;;;;3.72;3.30;;;26.50;61.90;;;;;;4824279;29;45048;-85
2023/08/22 09:55:06;;;;;;;3.17;2.90;;;26.50;62.00;;;;;;4819488;29;45698;-86
2023/08/22 09:57:32;;;;;;;3.30;2.92;;;26.50;62.00;;;;;;4803407;29;45712;-86
2023/08/22 09:59:57;;;;;;;4.47;3.35;;;26.50;62.00;;;;;;4838512;29;45207;-82
2023/08/22 10:02:23;;;;;;;3.72;2.95;;;26.50;62.00;;;;;;4833341;29;45773;-86
2023/08/22 10:04:49;;;;;;;3.38;2.63;;;26.50;62.00;;;;;;4822076;29;45210;-84
2023/08/22 10:07:15;;;;;;;3.97;3.13;;;26.50;62.00;;;;;;4827607;29;45117;-83
2023/08/22 10:09:41;;;;;;;3.38;3.05;;;26.50;62.00;;;;;;4844554;29;46840;-86
2023/08/22 10:12:09;;;;;;;3.40;3.10;;;26.50;62.00;;;;;;4804255;29;46596;-83
2023/08/22 10:14:47;;;;;;;3.35;3.05;;;26.50;62.00;;;;;;4819124;29;45342;-82
2023/08/22 10:17:13;;;;;;;3.25;2.95;;;26.50;62.00;;;;;;4814063;29;45440;-82
2023/08/22 10:19:38;;;;;;;3.28;2.80;;;26.60;62.10;;;;;;4806484;29;47077;-84
2023/08/22 10:22:09;;;;;;;3.45;3.15;;;26.50;62.00;;;;;;4830147;29;45510;-81
2023/08/22 10:24:35;;;;;;;2.97;2.67;;;26.50;62.00;;;;;;4801228;29;45501;-82
2023/08/22 10:27:07;;;;;;;3.42;2.78;;;26.50;62.00;;;;;;4804252;29;45447;-82
2023/08/22 10:29:46;;;;;;;3.00;2.80;;;26.60;62.00;;;;;;4848965;29;46076;-81
2023/08/22 10:32:11;;;;;;;2.88;2.65;;;26.50;62.00;;;;;;4805775;29;44997;-88
2023/08/22 10:34:42;;;;;;;2.70;2.50;;;26.60;62.10;;;;;;4824332;29;46103;-82
2023/08/22 10:37:22;;;;;;;3.17;2.88;;;26.60;62.10;;;;;;4855547;29;45336;-83
2023/08/22 10:39:48;;;;;;;3.53;3.22;;;26.60;62.00;;;;;;4810182;29;47036;-82
2023/08/22 10:42:23;;;;;;;3.10;2.80;;;26.50;62.00;;;;;;4838733;29;45222;-81
2023/08/22 10:44:53;;;;;;;3.00;2.63;;;26.60;62.10;;;;;;4830373;29;44930;-83
2023/08/22 10:47:20;;;;;;;2.85;2.65;;;26.60;62.10;;;;;;4813860;29;45272;-82
2023/08/22 10:49:50;;;;;;;3.22;2.92;;;26.60;62.10;;;;;;4823533;29;48140;-82
2023/08/22 10:52:16;;;;;;;3.20;2.90;;;26.60;62.10;;;;;;4811273;29;45282;-84
2023/08/22 10:55:05;;;;;;;2.80;2.55;;;26.60;62.10;;;;;;4840739;29;45000;-79
2023/08/22 10:57:36;;;;;;;3.88;2.70;;;26.60;62.00;;;;;;4825127;29;45506;-82
2023/08/22 11:00:21;;;;;;;3.30;2.95;;;26.60;62.10;;;;;;4842170;29;45553;-81
2023/08/22 11:02:51;;;;;;;2.80;2.55;;;26.60;62.10;;;;;;4805698;29;45615;-83
2023/08/22 11:05:16;;;;;;;3.05;2.85;;;26.60;62.10;;;;;;4833574;29;44811;-83
2023/08/22 11:07:44;;;;;;;3.15;2.60;;;26.60;62.10;;;;;;4817227;29;45322;-79
2023/08/22 11:10:15;;;;;;;2.95;2.63;;;26.60;62.10;;;;;;4822630;29;45214;-83
2023/08/22 11:12:41;;;;;;;3.17;2.88;;;26.60;62.10;;;;;;4824507;29;45208;-81
2023/08/22 11:15:07;;;;;;;2.88;2.67;;;26.60;62.10;;;;;;4825208;29;45303;-88
2023/08/22 11:17:39;;;;;;;2.72;2.53;;;26.60;62.10;;;;;;4808507;29;45290;-81
2023/08/22 11:20:09;;;;;;;3.80;2.72;;;26.60;62.10;;;;;;4830834;29;45604;-88
2023/08/22 11:22:34;;;;;;;3.22;2.92;;;26.60;62.10;;;;;;4811863;29;45255;-80
2023/08/22 11:25:00;;;;;;;3.60;2.60;;;26.60;62.10;;;;;;4850301;29;45496;-81
2023/08/22 11:27:25;;;;;;;3.20;2.90;;;26.60;62.10;;;;;;4836818;29;45112;-83
2023/08/22 11:29:51;;;;;;;2.92;2.72;;;26.60;62.10;;;;;;4816093;29;47511;-82
2023/08/22 11:32:28;;;;;;;2.95;2.70;;;26.60;62.10;;;;;;4842791;29;45728;-83
2023/08/22 11:34:55;;;;;;;3.95;3.33;;;26.60;62.10;;;;;;4819330;29;45148;-89
2023/08/22 11:37:20;;;;;;;4.65;3.13;;;26.60;62.10;;;;;;4822914;29;45588;-86
2023/08/22 11:39:49;;;;;;;3.10;2.67;;;26.60;62.10;;;;;;4852379;29;46395;-83
2023/08/22 11:42:20;;;;;;;2.60;2.40;;;26.60;62.10;;;;;;4840546;29;45468;-84
2023/08/22 11:45:22;;;;;;;3.10;2.80;;;26.60;62.10;;;;;;4835016;29;45604;-82
2023/08/22 11:47:48;;;;;;;2.67;2.47;;;26.60;62.10;;;;;;4836164;29;45816;-86
2023/08/22 11:50:17;;;;;;;3.55;2.78;;;26.60;62.10;;;;;;4848026;29;45726;-86
2023/08/22 11:52:44;;;;;;;2.90;2.70;;;26.60;62.10;;;;;;4840819;29;45164;-83
2023/08/22 11:55:10;;;;;;;2.78;2.58;;;26.60;62.10;;;;;;4841428;29;45209;-88
2023/08/22 11:57:41;;;;;;;2.83;2.63;;;26.60;62.10;;;;;;4843368;29;45322;-87
2023/08/22 12:00:10;;;;;;;2.47;2.28;;;26.60;62.10;;;;;;4845418;29;46993;-88
2023/08/22 12:02:36;;;;;;;5.43;2.70;;;26.60;62.10;;;;;;4837292;29;45268;-82
2023/08/22 12:05:05;;;;;;;3.78;2.70;;;26.60;62.10;;;;;;4832260;29;45649;-83
2023/08/22 12:07:41;;;;;;;2.50;2.30;;;26.60;62.10;;;;;;4822461;29;45066;-87
2023/08/22 12:10:07;;;;;;;2.97;2.67;;;26.60;62.10;;;;;;4812783;29;45731;-85
2023/08/22 12:12:33;;;;;;;2.80;2.22;;;26.60;62.10;;;;;;4830938;29;45177;-82
2023/08/22 12:14:59;;;;;;;2.88;2.67;;;26.60;62.10;;;;;;4841443;29;45274;-82
2023/08/22 12:17:25;;;;;;;2.83;2.60;;;26.60;62.10;;;;;;4802934;29;45647;-83
2023/08/22 12:19:51;;;;;;;2.78;2.58;;;26.60;62.10;;;;;;4823456;29;46740;-81
2023/08/22 12:22:16;;;;;;;2.70;2.50;;;26.60;62.10;;;;;;4851936;29;44816;-82
2023/08/22 12:24:45;;;;;;;2.70;2.50;;;26.60;62.10;;;;;;4825180;29;45456;-81
2023/08/22 12:27:11;;;;;;;3.40;2.58;;;26.60;62.10;;;;;;4834726;29;45476;-84
2023/08/22 12:29:38;;;;;;;2.72;2.53;;;26.60;62.10;;;;;;4811223;29;47504;-82
2023/08/22 12:32:04;;;;;;;3.03;2.72;;;26.60;62.10;;;;;;4830297;29;45201;-83
2023/08/22 12:34:30;;;;;;;2.60;2.30;;;26.60;62.10;;;;;;4827862;29;45485;-81
2023/08/22 12:36:56;;;;;;;4.43;2.45;;;26.60;62.10;;;;;;4820971;29;45888;-81
2023/08/22 12:39:21;;;;;;;5.88;2.45;;;26.60;62.10;;;;;;4831961;29;46388;-83
2023/08/22 12:41:47;;;;;;;4.00;2.67;;;26.60;62.10;;;;;;4819425;29;45969;-82
2023/08/22 12:44:13;;;;;;;2.70;2.47;;;26.60;62.10;;;;;;4834074;29;44683;-81
2023/08/22 12:46:38;;;;;;;3.22;2.60;;;26.60;62.10;;;;;;4836730;29;45566;-80
2023/08/22 12:49:04;;;;;;;2.42;1.95;;;26.60;62.10;;;;;;4839424;29;45451;-82
2023/08/22 12:51:29;;;;;;;4.93;2.67;;;26.60;62.10;;;;;;4804903;29;44939;-82
2023/08/22 12:53:55;;;;;;;3.83;2.42;;;26.60;62.10;;;;;;4810849;29;45074;-83
2023/08/22 12:56:26;;;;;;;2.50;2.15;;;26.60;62.10;;;;;;4838723;29;45256;-85
2023/08/22 12:58:51;;;;;;;2.47;2.28;;;26.60;62.10;;;;;;4827730;29;45606;-82
2023/08/22 13:01:17;;;;;;;2.58;2.35;;;26.60;62.10;;;;;;4824413;29;46774;-83
2023/08/22 13:03:42;;;;;;;2.47;2.28;;;26.60;62.10;;;;;;4822007;29;45877;-81
2023/08/22 13:06:08;;;;;;;2.60;2.22;;;26.60;62.10;;;;;;4822679;29;45661;-82
2023/08/22 13:08:33;;;;;;;2.28;1.98;;;26.60;62.10;;;;;;4819179;29;45248;-83
2023/08/22 13:10:59;;;;;;;2.58;2.38;;;26.60;62.10;;;;;;4841212;29;45234;-82
2023/08/22 13:13:25;;;;;;;2.55;2.35;;;26.60;62.10;;;;;;4813214;29;45410;-81
2023/08/22 13:15:51;;;;;;;2.70;2.30;;;26.70;62.20;;;;;;4816083;29;45143;-82
2023/08/22 13:18:17;;;;;;;2.50;2.25;;;26.60;62.10;;;;;;4825372;29;46162;-87
2023/08/22 13:20:42;;;;;;;2.42;2.22;;;26.60;62.10;;;;;;4809157;29;45446;-82
2023/08/22 13:23:08;;;;;;;2.38;1.95;;;26.60;62.10;;;;;;4828760;29;45171;-82
2023/08/22 13:25:33;;;;;;;2.25;2.05;;;26.60;62.10;;;;;;4826244;29;45186;-80
2023/08/22 13:27:59;;;;;;;2.30;2.10;;;26.60;62.10;;;;;;4828615;29;45458;-82
2023/08/22 13:30:25;;;;;;;3.42;2.50;;;26.60;62.10;;;;;;4810472;29;45228;-82
2023/08/22 13:32:50;;;;;;;2.53;2.33;;;26.60;62.10;;;;;;4817348;29;45160;-81
2023/08/22 13:35:16;;;;;;;2.20;2.00;;;26.60;62.10;;;;;;4813467;29;45077;-82
2023/08/22 13:37:42;;;;;;;2.45;2.13;;;26.60;62.10;;;;;;4784074;29;46807;-82
2023/08/22 13:40:09;;;;;;;4.00;2.70;;;26.60;62.10;;;;;;4813504;29;45383;-83
2023/08/22 13:42:35;;;;;;;2.30;2.10;;;26.60;62.10;;;;;;4816146;29;44987;-80
2023/08/22 13:45:01;;;;;;;2.60;2.25;;;26.60;62.10;;;;;;4829830;29;44990;-81
2023/08/22 13:47:26;;;;;;;2.53;2.33;;;26.60;62.10;;;;;;4821516;29;46137;-83
2023/08/22 13:49:52;;;;;;;2.38;2.17;;;26.60;62.10;;;;;;4834454;29;45019;-81
2023/08/22 13:52:18;;;;;;;2.22;1.92;;;26.60;62.10;;;;;;4837694;29;45298;-82
2023/08/22 13:54:43;;;;;;;2.38;2.17;;;26.60;62.10;;;;;;4818702;29;45444;-83
2023/08/22 13:57:09;;;;;;;2.00;1.90;;;26.60;62.10;;;;;;4826805;29;45220;-83
2023/08/22 13:59:35;;;;;;;2.40;2.20;;;26.60;62.10;;;;;;4803346;29;45361;-82
2023/08/22 14:02:01;;;;;;;2.67;2.28;;;26.60;62.10;;;;;;4779119;29;45155;-81
2023/08/22 14:04:26;;;;;;;2.40;2.20;;;26.60;62.10;;;;;;4836736;29;45377;-81
2023/08/22 14:06:52;;;;;;;2.30;2.10;;;26.60;62.10;;;;;;4822210;29;45321;-83
2023/08/22 14:09:19;;;;;;;2.30;2.10;;;26.60;62.10;;;;;;4843081;29;45532;-81
2023/08/22 14:11:44;;;;;;;2.50;2.20;;;26.70;62.20;;;;;;4845772;29;45215;-84
2023/08/22 14:14:11;;;;;;;2.60;2.40;;;26.60;62.10;;;;;;4836780;29;45208;-81
2023/08/22 14:16:36;;;;;;;2.35;2.15;;;26.60;62.10;;;;;;4822778;29;47313;-80
2023/08/22 14:19:02;;;;;;;2.47;2.28;;;26.60;62.10;;;;;;4818804;29;45071;-80
2023/08/22 14:21:27;;;;;;;2.92;2.65;;;26.60;62.10;;;;;;4819520;29;45415;-86
2023/08/22 14:23:53;;;;;;;2.47;2.28;;;26.60;62.10;;;;;;4811428;29;45492;-82
2023/08/22 14:26:19;;;;;;;2.10;2.00;;;26.60;62.10;;;;;;4829370;29;46843;-82
2023/08/22 14:28:44;;;;;;;2.25;2.13;;;26.60;62.10;;;;;;4834710;29;45697;-83
2023/08/22 14:31:10;;;;;;;2.25;2.03;;;26.60;62.10;;;;;;4848395;29;44751;-82
2023/08/22 14:33:36;;;;;;;2.10;1.90;;;26.60;62.10;;;;;;4835151;29;45551;-82
2023/08/22 14:36:09;;;;;;;2.45;2.17;;;26.60;62.10;;;;;;4826318;29;45140;-85
2023/08/22 14:38:35;;;;;;;2.60;2.10;;;26.60;62.10;;;;;;4816620;29;45208;-81
2023/08/22 14:41:00;;;;;;;2.22;2.03;;;26.60;62.10;;;;;;4814080;29;45245;-78
2023/08/22 14:43:29;;;;;;;2.60;2.00;;;26.60;62.10;;;;;;4837652;29;44826;-82
2023/08/22 14:45:55;;;;;;;2.47;2.28;;;26.60;62.10;;;;;;4802652;29;46943;-82
2023/08/22 14:48:21;;;;;;;2.30;2.10;;;26.60;62.10;;;;;;4826017;29;45418;-84
2023/08/22 14:50:47;;;;;;;2.22;2.03;;;26.60;62.10;;;;;;4823734;29;46215;-82
2023/08/22 14:53:15;;;;;;;3.10;2.38;;;26.60;62.10;;;;;;4830608;29;44833;-83
2023/08/22 14:55:43;;;;;;;2.40;2.20;;;26.60;62.10;;;;;;4814793;29;47059;-81
2023/08/22 14:58:10;;;;;;;2.40;2.20;;;26.60;62.10;;;;;;4835795;29;44958;-83
2023/08/22 15:00:35;;;;;;;2.30;2.10;;;26.70;62.20;;;;;;4840137;29;45523;-83
2023/08/22 15:03:02;;;;;;;3.17;2.03;;;26.60;62.10;;;;;;4806239;29;45190;-83
2023/08/22 15:05:27;;;;;;;2.33;2.00;;;26.70;62.10;;;;;;4832853;29;45580;-83
2023/08/22 15:07:53;;;;;;;2.50;2.30;;;26.70;62.10;;;;;;4813194;29;45303;-83
2023/08/22 15:10:19;;;;;;;1.98;1.77;;;26.70;62.10;;;;;;4827018;29;45824;-89
2023/08/22 15:12:45;;;;;;;1.92;1.77;;;26.60;62.00;;;;;;4798286;29;45429;-80
2023/08/22 15:15:10;;;;;;;3.05;2.60;;;26.70;62.10;;;;;;4831038;29;45385;-85
2023/08/22 15:17:36;;;;;;;2.30;2.10;;;26.70;62.10;;;;;;4810562;29;45316;-84
2023/08/22 15:20:05;;;;;;;1.95;1.85;;;26.70;62.10;;;;;;4805257;29;45325;-82
2023/08/22 15:22:31;;;;;;;2.53;2.03;;;26.70;62.10;;;;;;4831872;29;45234;-83
2023/08/22 15:24:57;;;;;;;13.95;2.72;;;26.70;62.10;;;;;;4848690;29;47303;-87
2023/08/22 15:27:23;;;;;;;17.23;2.20;;;26.70;62.10;;;;;;4830020;29;44748;-84
2023/08/22 15:29:48;;;;;;;3.28;2.38;;;26.70;62.00;;;;;;4841754;29;45280;-84
2023/08/22 15:32:14;;;;;;;8.35;2.20;;;26.70;62.00;;;;;;4813889;29;45489;-82
2023/08/22 15:34:39;;;;;;;2.92;2.30;;;26.70;62.00;;;;;;4795694;29;47092;-81
2023/08/22 15:37:05;;;;;;;4.85;2.05;;;26.70;62.00;;;;;;4826949;29;44711;-82
2023/08/22 15:39:31;;;;;;;2.80;2.13;;;26.70;62.00;;;;;;4828423;29;45288;-82
2023/08/22 15:41:56;;;;;;;3.15;2.20;;;26.70;62.00;;;;;;4812175;29;45054;-81
2023/08/22 15:44:22;;;;;;;5.30;2.15;;;26.70;62.10;;;;;;4796589;29;46968;-81
2023/08/22 15:46:47;;;;;;;2.35;1.98;;;26.70;62.10;;;;;;4819558;29;45194;-82